createdAt,value
2023-01-12T00:02:22.102Z,5.06
2023-01-12T00:07:24.590Z,5.07
2023-01-12T00:12:26.907Z,5.19
2023-01-12T00:17:30.233Z,5.23
2023-01-12T00:22:32.305Z,5.38
2023-01-12T00:27:34.321Z,5.33
2023-01-12T00:32:37.744Z,5.30
2023-01-12T00:37:39.697Z,5.35
2023-01-12T00:42:41.649Z,5.39
2023-01-12T00:47:45.141Z,5.33
2023-01-12T00:52:47.733Z,5.25
2023-01-12T00:57:49.895Z,5.24
2023-01-12T01:02:53.652Z,5.27
2023-01-12T01:07:55.817Z,5.26
2023-01-12T01:13:05.293Z,5.26
2023-01-12T01:18:08.868Z,5.35
2023-01-12T01:23:11.771Z,5.41
2023-01-12T01:28:15.073Z,5.36
2023-01-12T01:33:18.767Z,5.44
2023-01-12T01:38:20.830Z,5.60
2023-01-12T01:43:25.145Z,5.70
2023-01-12T01:48:32.135Z,5.88
2023-01-12T01:53:37.801Z,5.97
2023-01-12T01:58:43.502Z,6.01
2023-01-12T02:03:47.676Z,6.11
2023-01-12T02:08:55.060Z,6.19
2023-01-12T02:13:57.076Z,6.26
2023-01-12T02:19:22.931Z,6.18
2023-01-12T02:24:56.180Z,6.13
2023-01-12T02:30:51.687Z,6.08
2023-01-12T02:36:01.587Z,6.09
2023-01-12T02:41:09.860Z,6.06
2023-01-12T02:46:19.075Z,5.98
2023-01-12T02:51:28.152Z,5.98
2023-01-12T02:56:33.395Z,5.98
2023-01-12T03:01:37.591Z,5.97
2023-01-12T03:06:44.399Z,5.97
2023-01-12T03:11:51.556Z,5.91
2023-01-12T03:16:56.796Z,5.87
2023-01-12T03:22:03.640Z,5.91
2023-01-12T03:27:10.591Z,5.98
2023-01-12T03:32:13.008Z,5.96
2023-01-12T03:37:25.967Z,6.01
2023-01-12T03:42:31.984Z,5.96
2023-01-12T03:47:35.303Z,5.87
2023-01-12T03:52:41.647Z,5.87
2023-01-12T03:57:44.933Z,5.88
2023-01-12T04:02:47.221Z,5.99
2023-01-12T04:07:50.741Z,6.13
2023-01-12T04:12:53.160Z,6.32
2023-01-12T04:17:55.421Z,6.43
2023-01-12T04:23:20.684Z,6.57
2023-01-12T04:28:22.753Z,6.64
2023-01-12T04:33:25.008Z,6.74
2023-01-12T04:38:28.582Z,6.82
2023-01-12T04:43:30.743Z,6.91
2023-01-12T04:48:33.200Z,6.92
2023-01-12T04:53:36.723Z,7.03
2023-01-12T04:58:38.818Z,7.05
2023-01-12T05:03:40.994Z,7.00
2023-01-12T05:08:44.525Z,7.06
2023-01-12T05:13:47.382Z,7.09
2023-01-12T05:18:49.739Z,7.13
2023-01-12T05:23:53.384Z,7.13
2023-01-12T05:28:55.472Z,7.13
2023-01-12T05:33:57.610Z,7.17
2023-01-12T05:39:01.158Z,7.17
2023-01-12T05:44:03.730Z,7.17
2023-01-12T05:49:05.852Z,7.19
2023-01-12T05:54:10.939Z,7.14
2023-01-12T05:59:13.056Z,7.09
2023-01-12T06:04:15.097Z,6.92
2023-01-12T06:09:18.427Z,6.82
2023-01-12T06:14:20.990Z,6.78
2023-01-12T06:19:22.717Z,6.80
2023-01-12T06:24:26.213Z,6.85
2023-01-12T06:29:27.953Z,6.93
2023-01-12T06:34:41.657Z,6.94
2023-01-12T06:39:44.814Z,7.10
2023-01-12T06:44:48.860Z,7.20
2023-01-12T06:49:51.426Z,7.25
2023-01-12T06:54:54.975Z,7.31
2023-01-12T06:59:56.712Z,7.33
2023-01-12T07:04:58.616Z,7.38
2023-01-12T07:10:26.723Z,7.48
2023-01-12T07:15:28.703Z,7.49
2023-01-12T07:20:36.199Z,7.64
2023-01-12T07:25:39.674Z,7.69
2023-01-12T07:30:41.620Z,7.72
2023-01-12T07:35:43.661Z,7.82
2023-01-12T07:40:46.702Z,7.77
2023-01-12T07:45:48.400Z,7.76
2023-01-12T07:50:50.194Z,7.77
2023-01-12T07:55:53.304Z,7.79
2023-01-12T08:00:58.957Z,7.86
2023-01-12T08:06:01.709Z,7.92
2023-01-12T08:11:07.559Z,7.99
2023-01-12T08:16:16.125Z,8.04
2023-01-12T08:21:22.222Z,8.18
2023-01-12T08:26:38.654Z,8.25
2023-01-12T08:31:41.107Z,8.32
2023-01-12T08:36:44.567Z,8.41
2023-01-12T08:41:47.907Z,8.45
2023-01-12T08:46:51.980Z,8.44
2023-01-12T08:51:53.918Z,8.50
2023-01-12T08:56:58.275Z,8.56
2023-01-12T09:02:00.329Z,8.51
2023-01-12T09:07:02.259Z,8.52
2023-01-12T09:12:05.905Z,8.56
2023-01-12T09:17:08.456Z,8.63
2023-01-12T09:22:10.352Z,8.70
2023-01-12T09:27:13.573Z,8.93
2023-01-12T09:32:16.895Z,8.97
2023-01-12T09:37:20.747Z,9.01
2023-01-12T09:42:24.478Z,9.41
2023-01-12T09:47:32.371Z,9.63
2023-01-12T09:52:38.951Z,9.31
2023-01-12T09:58:14.021Z,9.28
2023-01-12T10:03:24.819Z,9.40
2023-01-12T10:08:32.473Z,9.53
2023-01-12T10:14:03.113Z,9.51
2023-01-12T10:19:18.629Z,9.61
2023-01-12T10:24:23.354Z,9.76
2023-01-12T10:29:27.120Z,9.64
2023-01-12T10:34:48.547Z,9.62
2023-01-12T10:39:52.067Z,9.54
2023-01-12T10:45:12.117Z,9.50
2023-01-12T10:50:23.322Z,9.34
2023-01-12T10:55:31.131Z,9.13
2023-01-12T11:00:35.471Z,9.02
2023-01-12T11:05:38.861Z,8.98
2023-01-12T11:10:40.912Z,9.04
2023-01-12T11:15:57.164Z,8.88
2023-01-12T11:21:05.041Z,8.84
2023-01-12T11:26:15.643Z,8.74
2023-01-12T11:31:21.990Z,8.72
2023-01-12T11:36:27.478Z,8.68
2023-01-12T11:41:35.611Z,8.84
2023-01-12T11:46:42.121Z,8.99
2023-01-12T11:51:51.647Z,9.08
2023-01-12T11:57:19.605Z,9.18
2023-01-12T12:02:35.140Z,9.28
2023-01-12T12:07:51.098Z,9.36
2023-01-12T12:13:22.278Z,9.47
2023-01-12T12:18:38.630Z,9.52
2023-01-12T12:23:50.111Z,9.57
2023-01-12T12:29:12.917Z,9.70
2023-01-12T12:34:42.710Z,9.67
2023-01-12T12:39:56.542Z,9.68
2023-01-12T12:45:06.349Z,9.63
2023-01-12T12:50:18.145Z,9.63
2023-01-12T12:55:20.619Z,9.65
2023-01-12T13:00:35.349Z,9.63
2023-01-12T13:06:21.506Z,9.62
2023-01-12T13:11:48.175Z,9.66
2023-01-12T13:16:52.306Z,9.66
2023-01-12T13:21:58.299Z,9.70
2023-01-12T13:27:00.724Z,9.71
2023-01-12T13:32:50.310Z,9.68
2023-01-12T13:38:02.710Z,9.73
2023-01-12T13:43:13.925Z,9.68
2023-01-12T13:48:18.927Z,9.71
2023-01-12T13:53:28.369Z,9.68
2023-01-12T13:58:40.618Z,9.71
2023-01-12T14:03:59.839Z,9.66
2023-01-12T14:09:15.791Z,9.64
2023-01-12T14:14:46.119Z,9.58
2023-01-12T14:19:49.693Z,9.71
2023-01-12T14:24:53.234Z,9.81
2023-01-12T14:29:55.195Z,9.85
2023-01-12T14:34:57.099Z,9.76
2023-01-12T14:40:02.147Z,9.81
2023-01-12T14:45:21.647Z,9.83
2023-01-12T14:50:23.748Z,9.87
2023-01-12T14:55:37.782Z,9.82
2023-01-12T15:00:44.054Z,9.82
2023-01-12T15:05:46.424Z,9.79
2023-01-12T15:10:58.903Z,9.78
2023-01-12T15:16:01.871Z,9.84
2023-01-12T15:21:04.408Z,9.89
2023-01-12T15:26:07.972Z,9.85
2023-01-12T15:31:19.003Z,9.89
2023-01-12T15:36:21.160Z,9.88
2023-01-12T15:41:27.044Z,9.90
2023-01-12T15:46:29.421Z,9.93
2023-01-12T15:51:31.838Z,9.94
2023-01-12T15:56:35.203Z,10.05
2023-01-12T16:01:40.506Z,10.03
2023-01-12T16:06:43.092Z,10.11
2023-01-12T16:11:46.741Z,10.06
2023-01-12T16:16:48.885Z,10.14
2023-01-12T16:21:51.179Z,10.18
2023-01-12T16:26:54.552Z,10.13
2023-01-12T16:31:57.068Z,10.20
2023-01-12T16:37:00.644Z,10.24
2023-01-12T16:42:04.103Z,10.21
2023-01-12T16:47:07.288Z,10.25
2023-01-12T16:52:14.569Z,10.22
2023-01-12T16:57:18.247Z,10.23
2023-01-12T17:02:20.569Z,10.31
2023-01-12T17:07:23.240Z,10.28
2023-01-12T17:12:27.195Z,10.26
2023-01-12T17:17:29.290Z,10.24
2023-01-12T17:22:31.818Z,10.22
2023-01-12T17:27:35.307Z,10.29
2023-01-12T17:32:37.839Z,10.30
2023-01-12T17:37:39.956Z,10.26
2023-01-12T17:42:43.250Z,10.21
2023-01-12T17:47:45.553Z,10.29
2023-01-12T17:52:47.887Z,10.33
2023-01-12T17:57:51.009Z,10.30
2023-01-12T18:02:53.099Z,10.34
2023-01-12T18:07:55.258Z,10.33
2023-01-12T18:12:58.818Z,10.35
2023-01-12T18:18:01.221Z,10.38
2023-01-12T18:23:03.275Z,10.43
2023-01-12T18:28:06.395Z,10.43
2023-01-12T18:33:08.323Z,10.46
2023-01-12T18:38:12.210Z,10.46
2023-01-12T18:43:17.068Z,10.45
2023-01-12T18:48:18.785Z,10.52
2023-01-12T18:53:21.503Z,10.49
2023-01-12T18:58:26.112Z,10.49
2023-01-12T19:03:28.134Z,10.63
2023-01-12T19:08:30.931Z,10.57
2023-01-12T19:13:34.124Z,10.54
2023-01-12T19:18:36.411Z,10.61
2023-01-12T19:23:40.379Z,10.60
2023-01-12T19:28:45.887Z,10.36
2023-01-12T19:33:47.830Z,10.16
2023-01-12T19:38:50.839Z,9.99
2023-01-12T19:43:54.541Z,9.95
2023-01-12T19:48:56.714Z,9.88
2023-01-12T19:53:59.054Z,9.78
2023-01-12T19:59:02.378Z,9.77
2023-01-12T20:04:04.556Z,9.68
2023-01-12T20:09:06.845Z,9.58
2023-01-12T20:14:10.490Z,9.49
2023-01-12T20:19:12.671Z,9.43
2023-01-12T20:24:14.907Z,9.34
2023-01-12T20:29:18.308Z,9.29
2023-01-12T20:34:20.968Z,9.27
2023-01-12T20:39:22.735Z,9.34
2023-01-12T20:44:25.846Z,9.33
2023-01-12T20:49:27.721Z,9.34
2023-01-12T20:54:29.877Z,9.29
2023-01-12T20:59:33.394Z,9.21
2023-01-12T21:04:35.726Z,9.14
2023-01-12T21:09:37.820Z,9.09
2023-01-12T21:14:41.361Z,9.13
2023-01-12T21:19:43.306Z,9.20
2023-01-12T21:24:47.811Z,9.18
2023-01-12T21:29:51.121Z,9.11
2023-01-12T21:34:53.230Z,9.09
2023-01-12T21:39:55.276Z,9.10
2023-01-12T21:44:58.807Z,9.13
2023-01-12T21:50:00.590Z,9.10
2023-01-12T21:55:02.835Z,9.06
2023-01-12T22:00:07.778Z,9.08
2023-01-12T22:05:09.998Z,9.03
2023-01-12T22:10:11.826Z,9.07
2023-01-12T22:15:15.326Z,9.06
2023-01-12T22:20:17.700Z,8.98
2023-01-12T22:25:20.185Z,9.03
2023-01-12T22:30:24.855Z,9.02
2023-01-12T22:35:27.129Z,9.04
2023-01-12T22:40:29.897Z,8.95
2023-01-12T22:45:35.293Z,8.86
2023-01-12T22:50:37.498Z,8.97
2023-01-12T22:55:39.835Z,8.94
2023-01-12T23:00:43.643Z,8.92
2023-01-12T23:05:47.784Z,8.93
2023-01-12T23:10:50.836Z,8.93
2023-01-12T23:15:55.985Z,8.91
2023-01-12T23:21:02.368Z,8.97
2023-01-12T23:26:06.340Z,9.04
2023-01-12T23:31:12.255Z,9.00
2023-01-12T23:36:16.570Z,9.03
2023-01-12T23:41:20.362Z,9.05
2023-01-12T23:46:23.854Z,9.10
2023-01-12T23:51:30.100Z,9.03
2023-01-12T23:56:34.565Z,9.09
